Whitleys Peak, Santa Catalina Island Weather observations

Data are for 10 minute period ending at time listed.
 Day   Time   Solar   Ave.   Ave.  Ave.  Vector    Max.   Stn.    Total
  of    of     Rad.   Air    Rel.  Wind   Wind     Wind   Baro.  Precip.
Year   Day            Temp.  Hum.  Speed  Dir.     Gust   Pres.         
2016   (PST)   W/m2    F      %     mph   deg.      mph    mb.     in.  
------------------------------------------------------------------------
 237    1:40    0.0    62   96.5     0      0.0     0.0    999.0   0.00  
 237    1:50    0.0    62   96.8     0     95.3     3.0    999.0   0.00  
 237    2:00    0.0    62   97.0     0      0.0     0.0    999.0   0.00  
 237    2:10    0.0    62   97.2     0      0.0     0.0    999.0   0.00  
 237    2:20    0.0    62   97.3     3     91.5    12.5    999.0   0.00  
 237    2:30    0.0    62   97.4     2     96.0    10.8    999.0   0.00  
 237    2:40    0.0    62   97.5     0      0.0     0.0    999.0   0.00  
 237    2:50    0.0    62   97.5     0     90.4     1.2    999.0   0.00  
 237    3:00    0.0    62   97.6     0     88.0     4.8    999.0   0.00  
 237    3:10    0.0    62   97.7     0    120.4     3.0    999.0   0.00  
 237    3:20    0.0    62   97.7     0     92.9     1.2    999.0   0.00  
 237    3:30    0.0    62   97.8     0     94.8     3.0    999.0   0.00  
 237    3:40    0.0    62   97.8     0      0.0     0.0    999.0   0.00  
 237    3:50    0.0    61   97.8     0      0.0     0.0    999.0   0.00  
 237    4:00    0.0    61   97.9     0      0.0     0.0    999.0   0.00  
 237    4:10    0.0    61   97.9     0    145.6     1.2    999.0   0.00  
 237    4:20    0.0    61   97.9     0      0.0     0.0    999.0   0.00  
 237    4:30    0.0    61   98.0     0      0.0     0.0    999.0   0.00  
 237    4:40    0.0    61   98.0     0      0.0     0.0    999.0   0.00  
 237    4:50    0.0    61   98.0     0      0.0     0.0    999.0   0.00  
 237    5:00    0.0    60   98.0     0      0.0     0.0    999.0   0.00  
 237    5:10    0.0    60   97.9     0      0.0     0.0    999.0   0.00  
 237    5:20    0.0    61   94.7     0      0.0     0.0    999.0   0.00  
 237    5:30    5.0    62   89.5     0      0.0     0.0    999.0   0.00  
 237    5:40   11.0    61   96.1     0      0.0     0.0    999.0   0.00  
 237    5:50   22.0    61   96.9     0      0.0     0.0    999.0   0.00  
 237    6:00   31.0    61   97.2     0      0.0     0.0    999.0   0.00  
 237    6:10   41.0    61   97.3     0      0.0     0.0    999.0   0.00  
 237    6:20   44.0    61   97.4     0      0.0     0.0    999.0   0.00  
 237    6:30   46.0    61   97.6     0      0.0     0.0    999.0   0.00  
 237    6:40   61.0    61   97.6     0      0.0     0.0    999.0   0.00  
 237    6:50   70.0    61   97.7     0      0.0     0.0    999.0   0.00  
 237    7:00   92.0    61   97.7     0      0.0     0.0    999.0   0.00  
 237    7:10  119.0    62   97.7     0      0.0     0.0    999.0   0.00  
 237    7:20  150.0    62   97.4     0      0.0     0.0    999.0   0.00  
 237    7:30  206.0    63   96.3     0      0.0     0.0    999.0   0.00  
 237    7:40  289.0    65   91.4     0      0.0     0.0    999.0   0.00  
 237    7:50  333.0    66   87.7     0      0.0     0.0    999.0   0.00  
 237    8:00  357.0    66   87.1     0      0.0     0.0    999.0   0.00  
 237    8:10  380.0    68   83.0     2     54.1     7.8    999.0   0.00  
 237    8:20  431.0    67   83.5     3     44.8     6.0    999.0   0.00  
 237    8:30  392.0    67   84.4     0     36.9     4.8    999.0   0.00  
 237    8:40  418.0    65   88.2     0      0.0     0.0    999.0   0.00  
 237    8:50  490.0    67   85.6     0     44.3     4.8    999.0   0.00  
 237    9:00  512.0    69   80.1     0     46.0     1.2    999.0   0.00  
 237    9:10  540.0    68   81.6     0      0.0     0.0    999.0   0.00  
 237    9:20  563.0    69   80.2     0      0.0     0.0    999.0   0.00  
 237    9:30  587.0    69   80.4     0      0.0     0.0    999.0   0.00  
 237    9:40  609.0    70   78.3     0      0.0     0.0    999.0   0.00  
 237    9:50  629.0    73   71.9     0      0.0     0.0    999.0   0.00  
 237   10:00  648.0    73   72.4     0      0.0     0.0    999.0   0.00  
 237   10:10  668.0    72   73.8     0      0.0     0.0    999.0   0.00  
 237   10:20  685.0    72   75.3     0      0.0     0.0    999.0   0.00  
 237   10:30  704.0    73   73.3     0      0.0     0.0    999.0   0.00  
 237   10:40  720.0    73   73.4     0      0.0     0.0    999.0   0.00  
 237   10:50  736.0    72   74.5     0      0.0     0.0    999.0   0.00  
 237   11:00  750.0    74   70.7     0      0.0     0.0    999.0   0.00  
 237   11:10  762.0    74   71.0     0      0.0     0.0    999.0   0.00  
 237   11:20  770.0    74   71.6     0      0.0     0.0    999.0   0.00  
 237   11:30  780.0    73   72.5     0      0.0     0.0    999.0   0.00  
 237   11:40  786.0    74   70.6     0      0.0     0.0    999.0   0.00  
 237   11:50  791.0    76   67.5     0      0.0     0.0    999.0   0.00  
 237   12:00  793.0    74   71.4     0      0.0     0.0    999.0   0.00  
 237   12:10  794.0    72   75.3     0      0.0     0.0    999.0   0.00  
 237   12:20  795.0    74   72.2     0      0.0     0.0    999.0   0.00  
 237   12:30  792.0    73   73.7     0      0.0     0.0    999.0   0.00  
 237   12:40  791.0    74   72.0     0      0.0     0.0    999.0   0.00  
 237   12:50  788.0    73   72.7     0      0.0     0.0    999.0   0.00  
 237   13:00  781.0    73   73.6     0      0.0     0.0    999.0   0.00  
 237   13:10  773.0    74   72.4     0      0.0     0.0    999.0   0.00  
 237   13:20  765.0    74   71.4     0      0.0     0.0    999.0   0.00  
 237   13:30  754.0    73   73.7     0      0.0     0.0    999.0   0.00  
 237   13:40  742.0    74   71.1     0      0.0     0.0    999.0   0.00  
 237   13:50  728.0    73   74.8     0      0.0     0.0    999.0   0.00  
 237   14:00  714.0    75   71.1     0      0.0     0.0    999.0   0.00  
 237   14:10  696.0    77   67.3     0      0.0     0.0    999.0   0.00  
 237   14:20  680.0    78   65.4     0      0.0     0.0    999.0   0.00  
 237   14:30  660.0    78   64.6     0      0.0     0.0    999.0   0.00  
 237   14:40  641.0    79   60.3     0      0.0     0.0    999.0   0.00  
 237   14:50  618.0    79   61.1     0      0.0     0.0    999.0   0.00  
 237   15:00  594.0    78   62.2     0      0.0     0.0    999.0   0.00  
 237   15:10  570.0    78   59.5     0      0.0     0.0    999.0   0.00  
 237   15:20  542.0    78   60.7     0      0.0     0.0    999.0   0.00  
 237   15:30  515.0    77   60.5     0      0.0     0.0    999.0   0.00  
 237   15:40  486.0    76   61.6     0      0.0     0.0    999.0   0.00  
 237   15:50  454.0    75   63.6     0      0.0     0.0    999.0   0.00  
 237   16:00  425.0    74   64.8     0      0.0     0.0    999.0   0.00  
 237   16:10  395.0    74   65.3     0      0.0     0.0    999.0   0.00  
 237   16:20  369.0    73   65.9     0      0.0     0.0    999.0   0.00  
 237   16:30  333.0    71   69.7     0      0.0     0.0    999.0   0.00  
 237   16:40  302.0    70   72.2     0      0.0     0.0    999.0   0.00  
 237   16:50  267.0    69   73.8     8    219.9    15.5    999.0   0.00  
 237   17:00  232.0    69   74.8    11    216.0    14.3    999.0   0.00  
 237   17:10  198.0    68   77.7    10    222.2    13.1    999.0   0.00  
 237   17:20  162.0    66   81.1    11    219.2    14.3    999.0   0.00  
 237   17:30  127.0    65   83.5    12    217.4    14.9    999.0   0.00  
 237   17:40  102.0    64   86.0    10    216.0    15.5    999.0   0.00  
 237   17:50   79.0    63   88.4     9    210.7    13.7    999.0   0.00  
 237   18:00   56.0    62   89.8     8    210.1    13.1    999.0   0.00  
 237   18:10   36.0    62   91.3     9    212.8    13.1    999.0   0.00  
 237   18:20   20.0    61   92.1    14    215.1    16.7    999.0   0.00  
 237   18:30    9.0    60   93.6    15    214.6    17.3    999.0   0.00  
 237   18:40    2.0    60   94.4    10    207.9    14.9    999.0   0.00  
 237   18:50    0.0    60   94.7     6    169.1    10.2    999.0   0.00  
 237   19:00    0.0    60   95.1     5    184.0     9.0    999.0   0.00  
 237   19:10    0.0    60   95.5    10    203.1    14.3    999.0   0.00  
 237   19:20    0.0    59   95.7     9    198.8    13.7    999.0   0.00  
 237   19:30    0.0    59   96.1    10    200.1    16.7    999.0   0.00  
 237   19:40    0.0    59   96.5    12    208.7    17.9    999.0   0.00  
 237   19:50    0.0    59   96.6     9    196.1    15.5    999.0   0.00  
 237   20:00    0.0    62   82.6    10    211.3    13.7    999.0   0.00  
 237   20:10    0.0    67   59.2     9    231.9    13.7    999.0   0.00  
 237   20:20    0.0    67   58.9    10    238.2    13.7    999.0   0.00  
 237   20:30    0.0    62   79.5    11    221.9    14.9    999.0   0.00  
 237   20:40    0.0    59   91.8    13    211.8    16.1    999.0   0.00  
 237   20:50    0.0    58   95.1    13    212.2    15.5    999.0   0.00  
 237   21:00    0.0    59   92.5    13    219.6    14.3    999.0   0.00  
 237   21:10    0.0    59   91.4    10    226.0    13.1    999.0   0.00  
 237   21:20    0.0    59   93.9     9    207.8    11.9    999.0   0.00  
 237   21:30    0.0    59   93.4     9    196.1    11.3    999.0   0.00  
 237   21:40    0.0    59   93.1     8    178.8    14.3    999.0   0.00  
 237   21:50    0.0    58   95.1     9    185.2    12.5    999.0   0.00  
 237   22:00    0.0    58   96.5    11    190.6    13.7    999.0   0.00  
 237   22:10    0.0    58   97.0    12    184.3    15.5    999.0   0.00  
 237   22:20    0.0    57   97.2    10    175.4    14.3    999.0   0.00  
 237   22:30    0.0    58   96.8     9    164.3    13.1    999.0   0.00  
 237   22:40    0.0    57   96.9    12    185.7    14.3    999.0   0.00  
 237   22:50    0.0    57   97.3    13    185.4    14.3    999.0   0.00  
 237   23:00    0.0    57   97.4    11    182.9    13.1    999.0   0.00  
 237   23:10    0.0    57   97.6     8    189.3    11.3    999.0   0.00  
 237   23:20    0.0    57   97.6     9    192.2    10.8    999.0   0.00  
 237   23:30    0.0    57   97.7     9    192.8    10.2    999.0   0.00  
 237   23:40    0.0    57   97.8     9    185.5    10.8    999.0   0.00  
 237   23:50    0.0    57   97.8     8    175.1    10.2    999.0   0.00  
 238    0:00    0.0    57   97.8     6    166.6     9.0    999.0   0.00  
 238    0:10    0.0    58   98.0     8    128.0    11.9    999.0   0.00  
 238    0:20    0.0    59   98.0     8    117.7    10.8    999.0   0.00  
 238    0:30    0.0    60   98.0     8    113.3    10.2    999.0   0.00  
 238    0:40    0.0    60   98.0     8    113.0    10.8    999.0   0.00  
 238    0:50    0.0    60   98.0     6    115.8     9.0    999.0   0.00  
 238    1:00    0.0    60   98.1     7    108.6     9.0    999.0   0.00  
 238    1:10    0.0    60   98.1     6    112.2     9.6    999.0   0.00  
 238    1:20    0.0    60   98.1     7    113.3    10.2    999.0   0.00  
 238    1:30    0.0    60   98.1     7    112.8     9.0    999.0   0.00  

Return to Whitleys Peak graphs page.


Western Regional Climate Center,wrcc@dri.edu